Time;durP1;ratioP1;P1;durP2;ratioP2;P2;SDS_P1;SDS_P2;PMS_P1;PMS_P2;Temp;Humidity;BMP_temperature;BMP_pressure;BME280_temperature;BME280_humidity;BME280_pressure;Samples;Min_cycle;Max_cycle;Signal;HPM_P1;HPM_P2
2022/07/30 00:13:41;;;;;;;3.85;2.42;;;;;;;19.07;56.49;100063.97;30732729;28;97114;-71
2022/07/30 00:28:41;;;;;;;3.90;2.35;;;;;;;18.96;56.34;100053.09;30731529;28;101193;-66
2022/07/30 00:43:42;;;;;;;6.03;2.20;;;;;;;18.85;56.29;100054.66;30743435;28;96644;-64
2022/07/30 00:58:42;;;;;;;4.03;2.10;;;;;;;18.77;56.19;100042.34;30750231;28;96695;-63
2022/07/30 01:13:44;;;;;;;6.25;2.20;;;;;;;18.81;56.45;100023.78;30748893;28;97021;-69
2022/07/30 01:28:48;;;;;;;4.17;2.20;;;;;;;18.82;56.13;100018.19;30747423;28;96753;-65
2022/07/30 01:43:50;;;;;;;8.73;2.57;;;;;;;18.81;56.18;100005.75;30746237;28;96804;-65
2022/07/30 01:58:52;;;;;;;3.50;2.17;;;;;;;18.72;56.13;99990.94;30744633;28;96752;-66
2022/07/30 02:13:56;;;;;;;3.20;2.10;;;;;;;18.70;56.42;99995.72;30743013;28;96779;-67
2022/07/30 02:28:59;;;;;;;6.33;2.23;;;;;;;18.70;56.39;99988.47;30741627;28;96796;-68
2022/07/30 02:44:01;;;;;;;7.63;2.90;;;;;;;18.63;56.55;99986.91;30740872;28;96684;-71
2022/07/30 02:59:05;;;;;;;5.77;2.17;;;;;;;18.59;56.69;99960.38;30738599;28;96665;-71
2022/07/30 03:14:06;;;;;;;5.37;2.37;;;;;;;18.47;56.66;99962.22;30736304;28;96680;-65
2022/07/30 03:29:07;;;;;;;;;;;;;;;18.43;57.15;99953.75;30736876;28;97868;-63
2022/07/30 03:44:09;;;;;;;7.72;2.38;;;;;;;18.45;57.31;99942.72;30735650;28;96684;-64
2022/07/30 03:59:09;;;;;;;3.60;2.00;;;;;;;18.61;57.12;99935.88;30733510;28;97454;-69
2022/07/30 04:14:10;;;;;;;4.28;1.95;;;;;;;18.69;57.26;99940.13;30738368;28;96613;-67
2022/07/30 04:29:11;;;;;;;13.63;7.20;;;;;;;18.80;57.16;99922.34;30750793;28;97516;-64
2022/07/30 04:44:11;;;;;;;3.73;2.00;;;;;;;19.06;56.81;99937.31;30750465;28;96810;-64
2022/07/30 04:59:13;;;;;;;8.85;3.20;;;;;;;19.30;56.18;99953.53;30746507;28;96657;-65
2022/07/30 05:14:13;;;;;;;3.30;1.80;;;;;;;19.54;55.99;99943.56;30741490;28;96644;-68
2022/07/30 05:29:14;;;;;;;2.28;1.50;;;;;;;19.89;55.12;99965.19;30739949;28;96669;-63
2022/07/30 05:44:15;;;;;;;5.30;1.65;;;;;;;20.02;54.54;99963.28;30737763;28;96636;-63
2022/07/30 05:59:15;;;;;;;3.93;1.80;;;;;;;20.26;54.17;99956.75;30697573;28;1154742;-63
2022/07/30 06:14:16;;;;;;;3.78;1.77;;;;;;;20.34;53.84;99941.19;30741857;28;96678;-65
2022/07/30 06:29:16;;;;;;;3.05;1.88;;;;;;;20.37;53.85;99940.72;30739604;28;96960;-65
2022/07/30 06:44:16;;;;;;;4.88;2.08;;;;;;;20.43;53.54;99937.03;30752054;28;97248;-67
2022/07/30 06:59:17;;;;;;;5.63;1.80;;;;;;;20.76;53.17;99939.03;30737157;28;97649;-70
2022/07/30 07:14:17;;;;;;;3.13;1.95;;;;;;;21.39;52.25;99940.84;30736028;28;97635;-65
2022/07/30 07:29:17;;;;;;;4.43;2.10;;;;;;;21.79;51.41;99947.97;30734997;28;96830;-65
2022/07/30 07:44:18;;;;;;;5.07;2.00;;;;;;;22.24;50.92;99941.47;30732334;28;97419;-72
2022/07/30 07:59:18;;;;;;;5.30;2.40;;;;;;;22.42;49.98;99926.75;30723479;28;103025;-71
2022/07/30 08:14:19;;;;;;;6.97;2.47;;;;;;;22.46;49.58;99929.78;30719399;28;97081;-67
2022/07/30 08:29:19;;;;;;;5.87;2.43;;;;;;;22.59;49.67;99934.78;30729166;28;101654;-67
2022/07/30 08:44:20;;;;;;;4.47;2.10;;;;;;;23.01;49.41;99918.88;30727548;28;97508;-66
2022/07/30 08:59:22;;;;;;;3.43;2.10;;;;;;;23.44;49.00;99933.31;30612393;28;96723;-65
2022/07/30 09:14:23;;;;;;;9.30;2.10;;;;;;;23.06;48.94;99941.47;30616247;28;96989;-65
2022/07/30 09:29:29;;;;;;;3.63;2.47;;;;;;;22.73;49.99;99950.66;30615905;28;97467;-65
2022/07/30 09:44:30;;;;;;;9.63;2.87;;;;;;;22.43;51.70;99970.97;30643298;28;97612;-65
2022/07/30 09:59:31;;;;;;;4.97;3.10;;;;;;;21.78;53.60;99957.16;30734491;28;96804;-73
2022/07/30 10:14:34;;;;;;;4.47;2.60;;;;;;;21.14;56.02;99966.47;30727824;28;96687;-66
2022/07/30 11:47:52;;;;;;;6.33;4.07;;;;;;;21.79;60.44;99916.22;30091254;23;99638;-62
2022/07/30 12:02:53;;;;;;;16.03;11.50;;;;;;;21.17;61.74;99909.06;30020228;29;97964;-65
2022/07/30 12:17:53;;;;;;;6.87;4.10;;;;;;;20.74;63.23;99918.69;30013969;29;97495;-62
2022/07/30 12:32:53;;;;;;;9.07;5.68;;;;;;;20.28;64.36;99915.91;30019112;29;96705;-63
2022/07/30 12:47:54;;;;;;;9.93;6.63;;;;;;;19.98;65.50;99910.75;30036746;29;97371;-63
2022/07/30 13:02:55;;;;;;;9.98;6.30;;;;;;;19.64;66.62;99913.25;30036291;29;97242;-62
2022/07/30 13:17:55;;;;;;;9.13;6.53;;;;;;;19.19;68.05;99906.56;30033407;29;97046;-61
2022/07/30 13:32:56;;;;;;;12.25;8.43;;;;;;;18.82;69.37;99899.47;30027250;29;98206;-63
2022/07/30 13:47:56;;;;;;;9.65;7.35;;;;;;;18.48;71.64;99898.28;30003170;29;98757;-59
2022/07/30 14:03:05;;;;;;;7.90;6.82;;;;;;;18.35;73.08;99883.13;30020196;29;97691;-59
2022/07/30 14:18:05;;;;;;;7.87;6.00;;;;;;;18.37;73.67;99889.09;30019119;29;97525;-60
2022/07/30 14:33:05;;;;;;;4.20;2.88;;;;;;;18.55;74.04;99862.09;30018412;29;97154;-58
2022/07/30 14:48:06;;;;;;;6.65;4.85;;;;;;;18.76;74.44;99857.19;30015410;29;97440;-60
2022/07/30 15:03:06;;;;;;;5.50;4.45;;;;;;;18.98;74.42;99864.78;30014424;29;97065;-60
2022/07/30 15:18:07;;;;;;;4.35;3.05;;;;;;;19.19;74.59;99860.66;30014677;29;97549;-60
2022/07/30 15:33:07;;;;;;;4.55;3.20;;;;;;;19.23;74.54;99849.16;30012974;29;100252;-60
2022/07/30 15:48:08;;;;;;;4.05;2.90;;;;;;;19.12;74.12;99855.38;30009905;29;97329;-59
2022/07/30 16:03:08;;;;;;;4.47;3.37;;;;;;;18.83;74.32;99847.09;30010030;29;97546;-61
2022/07/30 16:18:09;;;;;;;4.53;3.00;;;;;;;18.58;74.76;99850.81;30098691;29;98117;-62
2022/07/30 16:33:09;;;;;;;4.68;3.25;;;;;;;18.39;75.22;99850.06;30155575;28;97322;-61
2022/07/30 16:48:10;;;;;;;4.50;3.30;;;;;;;18.31;75.44;99844.19;30113487;28;96682;-62
2022/07/30 17:03:11;;;;;;;6.27;3.80;;;;;;;18.11;75.65;99850.69;30034705;29;98130;-62
2022/07/30 17:18:11;;;;;;;4.47;3.40;;;;;;;18.00;76.01;99854.16;30033792;29;96688;-61
2022/07/30 17:33:12;;;;;;;6.07;4.32;;;;;;;17.85;76.44;99847.28;30030905;29;97213;-61
2022/07/30 17:48:12;;;;;;;3.43;2.73;;;;;;;17.74;76.88;99845.31;30027521;29;97177;-64
2022/07/30 18:03:13;;;;;;;5.50;3.75;;;;;;;17.50;76.77;99844.38;30022430;29;97438;-64
2022/07/30 18:18:13;;;;;;;5.03;3.92;;;;;;;17.39;77.23;99851.31;30020020;29;97383;-64
2022/07/30 18:33:14;;;;;;;4.68;3.63;;;;;;;17.26;77.79;99863.03;30018955;29;98534;-64
2022/07/30 18:48:15;;;;;;;4.57;3.70;;;;;;;17.23;77.97;99871.56;30020017;29;97172;-64
2022/07/30 19:03:15;;;;;;;5.28;3.80;;;;;;;17.23;78.12;99874.25;30018128;29;97267;-64
2022/07/30 19:18:16;;;;;;;5.75;2.83;;;;;;;17.17;78.26;99883.22;30014013;29;97213;-64
2022/07/30 19:33:16;;;;;;;3.63;2.53;;;;;;;17.09;78.53;99881.63;30013863;29;97266;-63
2022/07/30 19:48:17;;;;;;;3.40;2.10;;;;;;;17.08;78.57;99888.88;30011701;29;96720;-64
2022/07/30 20:03:17;;;;;;;2.58;2.20;;;;;;;17.02;78.89;99894.34;30012064;29;96728;-63
2022/07/30 20:18:18;;;;;;;4.43;2.67;;;;;;;16.85;79.06;99891.31;30010467;29;97129;-63
2022/07/30 20:33:18;;;;;;;3.80;1.90;;;;;;;16.75;79.30;99905.25;30009638;29;96890;-64
2022/07/30 20:48:18;;;;;;;4.03;1.75;;;;;;;16.60;79.17;99905.56;30008780;29;97757;-63
2022/07/30 21:03:20;;;;;;;2.95;1.92;;;;;;;16.50;79.71;99911.41;30023779;29;97077;-63
2022/07/30 21:18:22;;;;;;;2.83;2.00;;;;;;;16.40;79.69;99916.44;30027035;29;97042;-63
2022/07/30 21:33:22;;;;;;;3.77;1.33;;;;;;;16.24;79.87;99929.34;30025282;29;96741;-64
2022/07/30 21:48:22;;;;;;;1.73;1.42;;;;;;;16.10;80.03;99935.78;30026019;29;97465;-65
2022/07/30 22:03:23;;;;;;;4.07;2.10;;;;;;;15.96;80.36;99956.50;30023948;29;96812;-64
2022/07/30 22:18:24;;;;;;;2.35;1.92;;;;;;;15.86;80.95;99965.00;30022225;29;97277;-65
2022/07/30 22:33:25;;;;;;;6.17;2.23;;;;;;;15.84;81.17;99971.63;30021007;29;97136;-65
2022/07/30 22:48:25;;;;;;;3.70;2.53;;;;;;;15.81;81.28;99988.16;30013967;29;97084;-61
2022/07/30 23:03:25;;;;;;;4.07;2.55;;;;;;;15.77;81.34;99994.97;30018401;29;97067;-62
2022/07/30 23:18:26;;;;;;;5.20;3.22;;;;;;;15.77;81.36;99992.28;30016494;29;97323;-62
2022/07/30 23:33:26;;;;;;;4.20;2.67;;;;;;;15.77;81.42;99987.72;30014926;29;99180;-62
2022/07/30 23:48:27;;;;;;;3.85;2.78;;;;;;;15.74;81.73;99994.34;30031498;29;97655;-62
